Time;durP1;ratioP1;P1;durP2;ratioP2;P2;SDS_P1;SDS_P2;PMS_P1;PMS_P2;Temp;Humidity;BMP_temperature;BMP_pressure;BME280_temperature;BME280_humidity;BME280_pressure;Samples;Min_cycle;Max_cycle;Signal;HPM_P1;HPM_P2
2022/12/15 00:40:03;;;;;;;24.98;13.95;;;-1.90;99.90;;;;;;5037087;28;20063;-64
2022/12/15 00:42:29;;;;;;;27.02;13.73;;;-2.90;99.90;;;;;;5035475;28;20537;-63
2022/12/15 00:44:56;;;;;;;22.63;14.38;;;-1.80;99.90;;;;;;5045227;28;20071;-63
2022/12/15 00:47:22;;;;;;;20.88;12.57;;;-1.70;99.90;;;;;;5034260;28;20590;-63
2022/12/15 01:20:16;;;;;;;20.23;13.20;;;-2.50;99.90;;;;;;5040195;28;20483;-63
2022/12/15 01:22:44;;;;;;;21.30;13.38;;;-2.30;99.90;;;;;;5038141;28;20196;-63
2022/12/15 01:25:11;;;;;;;22.77;14.02;;;-2.60;99.90;;;;;;5039386;28;20047;-63
2022/12/15 01:27:36;;;;;;;25.13;14.82;;;-2.40;99.90;;;;;;5021635;28;20510;-63
2022/12/15 01:30:04;;;;;;;22.63;14.73;;;-2.00;99.90;;;;;;5040767;28;20052;-63
2022/12/15 01:32:30;;;;;;;22.00;14.27;;;-1.80;99.90;;;;;;5017307;28;20052;-63
2022/12/15 01:34:56;;;;;;;21.95;13.73;;;-2.10;99.90;;;;;;5039907;28;20048;-63
2022/12/15 01:37:21;;;;;;;22.98;13.65;;;-2.20;99.90;;;;;;5038844;28;20602;-64
2022/12/15 01:42:31;;;;;;;22.42;13.63;;;-2.90;99.90;;;;;;5041352;28;20269;-63
2022/12/15 01:45:37;;;;;;;21.20;14.68;;;-1.80;99.90;;;;;;5040718;28;20302;-62
2022/12/15 01:48:12;;;;;;;22.38;13.15;;;-2.60;99.90;;;;;;5008533;28;20603;-63
2022/12/15 01:50:53;;;;;;;18.17;11.48;;;-2.50;99.90;;;;;;5069671;28;20052;-62
2022/12/15 01:53:19;;;;;;;23.88;12.55;;;-2.70;99.90;;;;;;5039973;28;20045;-62
2022/12/15 01:55:46;;;;;;;22.55;12.00;;;-2.30;99.90;;;;;;5037524;28;20040;-63
2022/12/15 01:58:14;;;;;;;21.98;11.32;;;-2.70;99.90;;;;;;5021236;28;20044;-63
2022/12/15 02:00:41;;;;;;;18.95;11.75;;;-2.60;99.90;;;;;;5038070;28;20037;-63
2022/12/15 02:03:08;;;;;;;19.00;13.02;;;-2.70;99.90;;;;;;5034971;28;20438;-63
2022/12/15 02:05:34;;;;;;;18.45;12.30;;;-1.60;99.90;;;;;;5037694;28;20474;-63
2022/12/15 02:08:02;;;;;;;20.13;12.63;;;-2.70;99.90;;;;;;5039199;28;20120;-62
2022/12/15 02:10:56;;;;;;;19.63;11.88;;;-2.90;99.90;;;;;;5035391;28;20686;-63
2022/12/15 02:13:31;;;;;;;19.13;10.95;;;-2.60;99.90;;;;;;5068636;28;20076;-62
2022/12/15 02:16:20;;;;;;;17.83;11.45;;;-2.00;99.90;;;;;;5038322;28;20045;-63
2022/12/15 02:19:08;;;;;;;15.15;8.32;;;-2.40;99.90;;;;;;5033856;28;20044;-63
2022/12/15 02:21:45;;;;;;;17.75;9.60;;;-1.80;99.90;;;;;;5037327;28;20610;-63
2022/12/15 02:24:38;;;;;;;17.80;10.85;;;-2.50;99.90;;;;;;5037879;28;20072;-63
2022/12/15 02:27:33;;;;;;;15.88;9.75;;;-1.70;99.90;;;;;;5036731;28;20103;-63
2022/12/15 02:30:21;;;;;;;16.30;10.05;;;-1.90;99.90;;;;;;5020504;28;21379;-63
2022/12/15 02:32:57;;;;;;;18.80;10.60;;;-2.80;99.90;;;;;;5037131;28;20052;-63
2022/12/15 02:35:34;;;;;;;19.20;10.98;;;-1.70;99.90;;;;;;5034960;28;21199;-63
2022/12/15 02:37:59;;;;;;;17.20;10.15;;;-2.80;99.90;;;;;;5038346;28;20495;-63
2022/12/15 02:40:25;;;;;;;19.08;10.30;;;-2.90;99.90;;;;;;5038987;28;20095;-62
2022/12/15 02:42:54;;;;;;;21.02;11.60;;;-2.10;99.90;;;;;;5035273;28;20446;-62
2022/12/15 02:45:35;;;;;;;18.48;9.90;;;-2.80;99.90;;;;;;5038362;28;20221;-62
2022/12/15 02:48:09;;;;;;;16.88;9.40;;;-2.00;99.90;;;;;;5038992;28;20068;-63
2022/12/15 02:51:08;;;;;;;17.23;9.63;;;-2.40;99.90;;;;;;5035366;28;20108;-64
2022/12/15 02:53:57;;;;;;;15.30;8.68;;;-2.10;99.90;;;;;;5037535;28;20064;-63
2022/12/15 02:57:02;;;;;;;17.95;8.65;;;-2.20;99.90;;;;;;5037552;28;20040;-62
2022/12/15 02:59:46;;;;;;;16.42;7.45;;;-1.70;99.90;;;;;;5019412;28;20053;-63
2022/12/15 03:02:14;;;;;;;12.48;7.28;;;-1.50;99.90;;;;;;5037254;28;20057;-62
2022/12/15 03:04:42;;;;;;;13.48;6.47;;;-1.50;99.90;;;;;;5036695;28;20056;-63
2022/12/15 03:07:09;;;;;;;12.23;6.35;;;-2.30;99.90;;;;;;5064318;28;20036;-63
2022/12/15 03:09:35;;;;;;;11.73;5.20;;;-1.80;99.90;;;;;;5039558;28;20039;-62
2022/12/15 03:12:01;;;;;;;11.70;6.35;;;-2.00;99.90;;;;;;5033871;28;20150;-63
2022/12/15 03:14:26;;;;;;;11.75;5.28;;;-1.60;99.90;;;;;;5038402;28;20171;-63
2022/12/15 03:16:53;;;;;;;11.60;5.28;;;-1.90;99.90;;;;;;5037552;28;20041;-63
2022/12/15 03:19:19;;;;;;;9.90;3.75;;;-1.60;99.90;;;;;;5035514;28;21009;-62
2022/12/15 03:21:45;;;;;;;10.23;4.63;;;-1.10;99.90;;;;;;5034918;28;20111;-64
2022/12/15 03:24:10;;;;;;;9.75;4.47;;;-1.50;99.90;;;;;;5034768;28;20052;-63
2022/12/15 03:26:36;;;;;;;12.05;4.38;;;-1.00;99.90;;;;;;5037143;28;20457;-63
2022/12/15 03:29:02;;;;;;;8.85;3.80;;;-0.90;99.90;;;;;;5018326;28;20428;-62
2022/12/15 03:31:28;;;;;;;8.50;2.95;;;-1.00;99.90;;;;;;5038194;28;20041;-62
2022/12/15 03:33:54;;;;;;;9.43;2.85;;;-1.50;99.90;;;;;;5038287;28;20052;-63
2022/12/15 03:36:21;;;;;;;7.40;2.25;;;-1.40;99.90;;;;;;5016938;28;20083;-62
2022/12/15 03:38:48;;;;;;;7.35;2.08;;;-0.90;99.90;;;;;;5033161;28;20049;-63
2022/12/15 03:41:14;;;;;;;8.27;2.10;;;-2.30;99.90;;;;;;5037176;28;20088;-64
2022/12/15 03:43:39;;;;;;;10.50;1.88;;;-2.20;99.90;;;;;;5033228;28;20461;-64
2022/12/15 03:46:05;;;;;;;6.80;1.30;;;-1.90;99.90;;;;;;5035816;28;20043;-63
2022/12/15 03:48:31;;;;;;;9.65;1.52;;;-2.20;99.90;;;;;;5019383;28;20076;-63
2022/12/15 03:50:58;;;;;;;4.55;0.80;;;-1.50;99.90;;;;;;5065148;28;20041;-64
2022/12/15 03:53:23;;;;;;;7.93;0.70;;;-2.30;99.90;;;;;;5036781;28;20301;-62
2022/12/15 03:55:49;;;;;;;4.55;0.52;;;-1.10;99.90;;;;;;5033795;28;20427;-63
2022/12/15 03:58:15;;;;;;;12.90;1.42;;;-0.80;99.90;;;;;;5018357;28;20431;-63
2022/12/15 04:00:40;;;;;;;9.20;1.60;;;-0.60;99.90;;;;;;5036378;28;20085;-62
2022/12/15 04:03:06;;;;;;;10.20;2.20;;;-1.80;99.90;;;;;;5019590;28;20545;-63
2022/12/15 04:05:34;;;;;;;11.98;2.65;;;-1.90;99.90;;;;;;5034722;28;20044;-64
2022/12/15 04:08:00;;;;;;;16.05;2.42;;;-0.50;99.90;;;;;;5034614;28;20509;-63
2022/12/15 04:10:30;;;;;;;14.00;2.47;;;-0.50;99.90;;;;;;5016494;28;20929;-63
2022/12/15 04:12:57;;;;;;;7.68;2.42;;;-0.70;99.90;;;;;;5037252;28;20120;-63
2022/12/15 04:15:23;;;;;;;6.45;2.58;;;-0.80;99.90;;;;;;5034196;28;20199;-63
2022/12/15 04:17:48;;;;;;;10.27;2.70;;;-0.80;99.90;;;;;;5035705;28;20037;-64
2022/12/15 04:20:14;;;;;;;8.60;4.30;;;-2.00;99.90;;;;;;5036662;28;20538;-63
2022/12/15 04:22:42;;;;;;;8.10;3.72;;;-2.10;99.90;;;;;;5018524;28;20037;-63
2022/12/15 05:33:54;;;;;;;13.82;5.57;;;-2.50;99.90;;;;;;5034843;28;20487;-63
2022/12/15 05:36:21;;;;;;;13.43;5.85;;;-1.70;99.90;;;;;;5036597;28;20264;-63
2022/12/15 05:38:48;;;;;;;13.73;6.30;;;-2.80;99.90;;;;;;5064131;28;20089;-63
2022/12/15 05:41:14;;;;;;;17.50;7.57;;;-2.30;99.90;;;;;;5033765;28;20053;-64
2022/12/15 05:43:40;;;;;;;15.88;8.88;;;-2.60;99.90;;;;;;5018390;28;20041;-63
2022/12/15 05:46:05;;;;;;;14.05;9.70;;;-1.40;99.90;;;;;;5035395;28;20569;-63
2022/12/15 05:48:31;;;;;;;18.98;10.60;;;-1.40;99.90;;;;;;5020450;28;20571;-63
2022/12/15 05:51:01;;;;;;;15.85;10.63;;;-2.20;99.90;;;;;;5037999;28;20044;-63
2022/12/15 05:53:27;;;;;;;22.80;12.02;;;-2.60;99.90;;;;;;5039489;28;20123;-62
2022/12/15 05:56:03;;;;;;;24.08;12.65;;;-1.50;99.90;;;;;;5036454;28;20037;-62
2022/12/15 05:58:29;;;;;;;23.58;11.82;;;-2.40;99.90;;;;;;5040619;28;20103;-62
2022/12/15 06:01:00;;;;;;;22.77;10.85;;;-2.00;99.90;;;;;;5035564;28;20843;-65
2022/12/15 06:03:26;;;;;;;17.20;10.82;;;-2.40;99.90;;;;;;5019327;28;20057;-62
2022/12/15 06:05:52;;;;;;;20.38;11.38;;;-2.00;99.90;;;;;;5021202;28;20048;-63
2022/12/15 06:08:17;;;;;;;22.95;13.50;;;-2.00;99.90;;;;;;5039240;28;20053;-63
2022/12/15 06:10:43;;;;;;;21.98;11.57;;;-2.00;99.90;;;;;;5035701;28;20041;-63
2022/12/15 06:13:09;;;;;;;19.77;10.15;;;-1.30;99.90;;;;;;5051769;28;20204;-65
2022/12/15 06:15:34;;;;;;;21.33;11.00;;;-1.30;99.90;;;;;;5037739;28;20128;-62
2022/12/15 06:18:00;;;;;;;21.38;10.98;;;-1.40;99.90;;;;;;5034451;28;20040;-63
2022/12/15 06:20:25;;;;;;;17.92;10.13;;;-2.30;99.90;;;;;;5038087;28;20041;-63
2022/12/15 06:22:51;;;;;;;16.13;9.93;;;-1.20;99.90;;;;;;5039026;28;20037;-63
2022/12/15 06:25:17;;;;;;;14.15;9.00;;;-1.20;99.90;;;;;;5039140;28;20047;-63
2022/12/15 06:27:42;;;;;;;16.65;7.78;;;-1.70;99.90;;;;;;5040374;28;20080;-63
2022/12/15 06:30:09;;;;;;;16.08;8.02;;;-0.90;99.90;;;;;;5041848;28;20036;-63
2022/12/15 06:32:35;;;;;;;16.90;8.57;;;-1.60;99.90;;;;;;5038611;28;20032;-64
2022/12/15 06:35:00;;;;;;;16.65;8.05;;;-0.90;99.90;;;;;;5038044;28;20527;-62
2022/12/15 06:37:26;;;;;;;17.92;8.05;;;-1.50;99.90;;;;;;5049330;28;20055;-62
2022/12/15 06:39:52;;;;;;;11.27;7.90;;;-1.50;99.90;;;;;;5038466;28;20429;-65
2022/12/15 06:42:17;;;;;;;17.60;7.63;;;-1.20;99.90;;;;;;5049129;28;20043;-63
2022/12/15 06:44:43;;;;;;;12.77;8.02;;;-1.40;99.90;;;;;;5020793;28;20056;-64
2022/12/15 06:47:09;;;;;;;14.40;7.57;;;-0.60;99.90;;;;;;5021214;28;20053;-63
2022/12/15 06:49:34;;;;;;;14.30;7.28;;;-0.60;99.90;;;;;;5062466;28;20051;-63
2022/12/15 06:52:00;;;;;;;16.55;7.72;;;-1.00;99.90;;;;;;5038796;28;20064;-64
2022/12/15 06:54:26;;;;;;;11.80;7.07;;;-1.00;99.90;;;;;;5021524;28;20059;-65
2022/12/15 06:56:52;;;;;;;16.90;8.13;;;-0.60;99.90;;;;;;5019371;28;20052;-62
2022/12/15 06:59:18;;;;;;;13.70;7.50;;;-0.60;99.90;;;;;;5040947;28;20515;-63
2022/12/15 07:01:43;;;;;;;12.52;7.05;;;-1.00;99.90;;;;;;5041311;28;20465;-63
2022/12/15 07:04:10;;;;;;;14.30;7.10;;;-0.50;99.90;;;;;;5020050;28;20045;-66
2022/12/15 07:06:37;;;;;;;15.93;6.93;;;-0.70;99.90;;;;;;5038003;28;20152;-63
2022/12/15 07:09:06;;;;;;;9.82;6.15;;;-0.90;99.90;;;;;;5041425;28;20041;-64
2022/12/15 07:11:31;;;;;;;13.65;6.80;;;-0.90;99.90;;;;;;5042026;28;20370;-63
2022/12/15 07:13:57;;;;;;;11.50;6.35;;;-0.40;99.90;;;;;;5041099;28;20032;-62
2022/12/15 07:16:24;;;;;;;10.80;5.75;;;-0.70;99.90;;;;;;5040498;28;20132;-62
2022/12/15 07:18:50;;;;;;;9.40;5.32;;;-0.90;99.90;;;;;;5041304;28;20049;-63
2022/12/15 07:21:16;;;;;;;14.40;6.38;;;-0.30;99.90;;;;;;5037383;28;20562;-63
2022/12/15 07:23:42;;;;;;;10.65;6.03;;;-0.50;99.90;;;;;;5041249;28;20029;-63
2022/12/15 07:26:09;;;;;;;11.73;5.40;;;-0.70;99.90;;;;;;5039607;28;20049;-63
2022/12/15 07:28:36;;;;;;;13.52;5.53;;;-0.70;99.90;;;;;;5038869;28;20047;-62
2022/12/15 07:31:06;;;;;;;10.90;5.45;;;-0.40;99.90;;;;;;5041067;28;20029;-64
2022/12/15 07:33:33;;;;;;;10.60;5.57;;;-0.40;99.90;;;;;;5041257;28;20452;-63
2022/12/15 07:36:00;;;;;;;13.60;5.40;;;-0.60;99.90;;;;;;5037866;28;20450;-63
2022/12/15 07:38:27;;;;;;;13.70;5.70;;;-0.60;99.90;;;;;;5039452;28;20124;-63
2022/12/15 07:40:53;;;;;;;15.15;5.30;;;-0.50;99.90;;;;;;5039303;28;20394;-64
2022/12/15 07:43:20;;;;;;;15.80;6.00;;;-0.40;99.90;;;;;;5040487;28;20041;-63
2022/12/15 07:45:51;;;;;;;12.63;5.90;;;-0.30;99.90;;;;;;5039091;28;20124;-64
2022/12/15 07:48:17;;;;;;;13.57;5.38;;;-0.10;99.90;;;;;;5040256;28;20301;-62
2022/12/15 07:50:43;;;;;;;11.52;5.28;;;-0.60;99.90;;;;;;5040125;28;20175;-63
2022/12/15 07:53:09;;;;;;;7.78;5.20;;;-0.40;99.90;;;;;;5036132;28;20036;-63
2022/12/15 07:55:34;;;;;;;11.77;5.63;;;-0.50;99.90;;;;;;5039549;28;20321;-63
2022/12/15 07:58:00;;;;;;;10.88;5.20;;;-0.20;99.90;;;;;;5040108;28;20040;-63
2022/12/15 08:00:27;;;;;;;13.63;5.85;;;-0.10;99.90;;;;;;5038351;28;20151;-64
2022/12/15 08:02:52;;;;;;;13.50;6.85;;;-0.20;99.90;;;;;;5015339;28;20482;-63
2022/12/15 08:05:18;;;;;;;12.38;6.65;;;-0.10;99.90;;;;;;5038750;28;20155;-63
2022/12/15 08:07:44;;;;;;;12.35;6.10;;;-0.60;99.90;;;;;;5036632;28;20049;-64
2022/12/15 08:10:09;;;;;;;12.23;6.35;;;-0.60;99.90;;;;;;5069342;28;20045;-63
2022/12/15 08:12:35;;;;;;;14.25;6.28;;;-0.60;99.90;;;;;;5038740;28;20037;-64
2022/12/15 08:15:01;;;;;;;13.13;5.60;;;-0.60;99.90;;;;;;5039721;28;20049;-64
2022/12/15 08:17:26;;;;;;;18.05;6.20;;;-0.20;99.90;;;;;;5041016;28;20039;-64
2022/12/15 08:19:56;;;;;;;15.32;5.90;;;-0.20;99.90;;;;;;5038097;28;20040;-63
2022/12/15 08:22:23;;;;;;;13.00;6.05;;;-0.40;99.90;;;;;;5039893;28;20095;-63
2022/12/15 08:24:49;;;;;;;16.17;6.70;;;-0.50;99.90;;;;;;5035412;28;20522;-64
2022/12/15 08:27:15;;;;;;;16.60;6.43;;;-0.10;99.90;;;;;;5021962;28;20329;-64
2022/12/15 08:29:40;;;;;;;14.27;6.38;;;-0.10;99.90;;;;;;5021445;28;20047;-66
2022/12/15 08:32:06;;;;;;;12.10;6.15;;;-0.30;99.90;;;;;;5036969;28;20055;-65
2022/12/15 08:34:32;;;;;;;11.40;5.72;;;-0.60;99.90;;;;;;5037749;28;20136;-65
2022/12/15 08:36:57;;;;;;;12.52;5.95;;;-0.50;99.90;;;;;;5034155;28;20041;-65
2022/12/15 08:39:23;;;;;;;13.57;5.78;;;-0.70;99.90;;;;;;5031331;28;20606;-64
2022/12/15 08:41:49;;;;;;;13.02;6.18;;;-0.60;99.90;;;;;;5034284;28;20143;-65
2022/12/15 08:44:15;;;;;;;12.13;6.03;;;-0.30;99.90;;;;;;5002008;28;20071;-64
2022/12/15 08:46:41;;;;;;;13.65;5.80;;;-0.10;99.90;;;;;;5033151;28;20124;-64
2022/12/15 08:49:07;;;;;;;11.15;5.95;;;-0.40;99.90;;;;;;5037455;28;20047;-64
2022/12/15 08:51:33;;;;;;;18.42;6.82;;;0.00;99.90;;;;;;5017930;28;20111;-64
2022/12/15 08:54:00;;;;;;;15.90;6.13;;;-0.40;99.90;;;;;;5033831;28;20166;-64
2022/12/15 08:56:26;;;;;;;12.45;5.85;;;-0.40;99.90;;;;;;5015730;28;20709;-63
2022/12/15 08:59:00;;;;;;;13.30;6.18;;;-0.10;99.90;;;;;;5034237;28;20040;-65
2022/12/15 09:01:30;;;;;;;15.90;6.85;;;-0.20;99.90;;;;;;5034280;28;20041;-65
2022/12/15 09:03:57;;;;;;;14.98;6.38;;;-0.50;99.90;;;;;;5034339;28;20045;-64
2022/12/15 09:06:34;;;;;;;15.23;6.47;;;-0.30;99.90;;;;;;5018686;28;20159;-64
2022/12/15 09:09:03;;;;;;;11.43;6.25;;;-0.20;99.90;;;;;;5033238;28;20040;-64
2022/12/15 09:11:30;;;;;;;12.05;6.35;;;0.00;99.90;;;;;;5032667;28;20041;-64
2022/12/15 09:13:55;;;;;;;13.55;6.78;;;-0.30;99.90;;;;;;5034152;28;20545;-64
2022/12/15 09:16:21;;;;;;;18.25;7.32;;;-0.10;99.90;;;;;;5015817;28;20131;-65
2022/12/15 09:18:52;;;;;;;16.10;6.15;;;-0.10;99.90;;;;;;5035798;28;20048;-64
2022/12/15 09:21:21;;;;;;;15.43;5.90;;;-0.10;99.90;;;;;;5037503;28;20291;-66
2022/12/15 09:23:51;;;;;;;16.15;6.25;;;-0.10;99.90;;;;;;5023571;28;20045;-66
2022/12/15 09:26:19;;;;;;;12.23;5.75;;;0.30;99.90;;;;;;5036657;28;20070;-63
2022/12/15 09:28:44;;;;;;;17.45;7.43;;;0.00;99.90;;;;;;5036600;28;20048;-64
2022/12/15 09:31:13;;;;;;;11.27;6.78;;;0.30;99.90;;;;;;5023617;28;20068;-63
2022/12/15 09:33:40;;;;;;;12.90;6.10;;;0.30;99.90;;;;;;5022304;28;20044;-64
2022/12/15 09:36:07;;;;;;;9.90;6.30;;;0.20;99.90;;;;;;5041282;28;20041;-65
2022/12/15 09:38:34;;;;;;;13.90;6.30;;;0.10;99.90;;;;;;5040087;28;20076;-64
2022/12/15 09:41:30;;;;;;;13.50;6.88;;;0.40;99.90;;;;;;5068665;28;20053;-63
2022/12/15 09:43:59;;;;;;;12.35;5.53;;;0.40;99.90;;;;;;5034994;28;20053;-63
2022/12/15 09:46:45;;;;;;;13.15;6.20;;;0.20;99.90;;;;;;5038944;28;20063;-65
2022/12/15 09:49:21;;;;;;;11.88;6.22;;;0.40;99.90;;;;;;5068860;28;20053;-65
2022/12/15 09:51:57;;;;;;;8.25;5.30;;;0.60;99.90;;;;;;5023477;28;20463;-64
2022/12/15 09:54:29;;;;;;;12.93;5.65;;;0.70;99.90;;;;;;5051332;28;20125;-63
2022/12/15 09:56:59;;;;;;;10.45;5.90;;;0.80;99.90;;;;;;5019731;28;20048;-64
2022/12/15 09:59:34;;;;;;;10.98;5.45;;;0.80;99.90;;;;;;5034609;28;20048;-64
2022/12/15 10:02:32;;;;;;;13.00;5.88;;;1.10;99.90;;;;;;5038726;28;20581;-65
2022/12/15 10:05:24;;;;;;;10.38;5.65;;;1.20;99.90;;;;;;5037426;28;20321;-64
2022/12/15 10:07:50;;;;;;;14.27;5.80;;;1.60;99.90;;;;;;5069113;28;20045;-65
2022/12/15 10:10:37;;;;;;;11.75;5.47;;;2.30;99.90;;;;;;5021131;28;20048;-64
2022/12/15 10:13:16;;;;;;;8.85;5.00;;;2.70;99.90;;;;;;5039364;28;20040;-64
2022/12/15 10:15:53;;;;;;;11.55;5.45;;;3.30;99.90;;;;;;5039234;28;20045;-64
2022/12/15 10:18:37;;;;;;;9.15;5.10;;;3.20;99.90;;;;;;5071529;28;20080;-64
2022/12/15 10:21:02;;;;;;;10.32;5.30;;;3.60;99.90;;;;;;5023584;28;20044;-65
2022/12/15 10:23:28;;;;;;;9.23;4.60;;;3.80;99.90;;;;;;5022753;28;20556;-65
2022/12/15 10:26:30;;;;;;;12.52;4.93;;;3.90;99.90;;;;;;5038406;28;20048;-65
2022/12/15 10:29:26;;;;;;;7.50;3.38;;;3.80;99.90;;;;;;5041192;28;20363;-65
2022/12/15 10:31:51;;;;;;;10.57;4.22;;;4.10;99.90;;;;;;5037740;28;20073;-66
2022/12/15 10:34:30;;;;;;;8.88;4.25;;;4.10;99.90;;;;;;5040186;28;20136;-67
2022/12/15 10:36:57;;;;;;;11.40;5.03;;;4.10;99.90;;;;;;5039981;28;20455;-66
2022/12/15 10:39:35;;;;;;;9.27;4.53;;;4.40;99.90;;;;;;5039599;28;20056;-65
2022/12/15 10:42:11;;;;;;;12.63;4.35;;;4.70;99.90;;;;;;5038927;28;20041;-66
2022/12/15 10:44:40;;;;;;;7.75;4.20;;;4.80;99.90;;;;;;5040931;28;20478;-64
2022/12/15 10:47:21;;;;;;;9.13;4.07;;;5.00;99.90;;;;;;5036565;28;20049;-65
2022/12/15 10:49:47;;;;;;;11.20;3.80;;;5.00;99.90;;;;;;5039181;28;20087;-65
2022/12/15 10:52:22;;;;;;;8.30;4.15;;;4.90;99.90;;;;;;5039442;28;20049;-65
2022/12/15 10:54:49;;;;;;;9.57;4.28;;;5.00;99.90;;;;;;5040444;28;20384;-67
2022/12/15 10:57:23;;;;;;;9.38;4.30;;;5.40;99.90;;;;;;5037539;28;20041;-65
2022/12/15 10:59:49;;;;;;;10.63;4.68;;;5.50;99.90;;;;;;5051973;28;20056;-65
2022/12/15 11:02:24;;;;;;;9.43;4.35;;;5.40;99.90;;;;;;5035632;28;20697;-66
2022/12/15 11:05:01;;;;;;;7.45;4.45;;;5.20;99.90;;;;;;5040606;28;20044;-65
2022/12/15 11:07:54;;;;;;;11.48;4.88;;;5.20;99.90;;;;;;5037085;28;20036;-65
2022/12/15 11:10:26;;;;;;;8.83;4.60;;;5.30;99.90;;;;;;5038785;28;20037;-67
2022/12/15 11:13:15;;;;;;;10.23;4.60;;;5.50;99.90;;;;;;5037671;28;20294;-64
2022/12/15 11:15:49;;;;;;;9.82;5.50;;;5.70;99.90;;;;;;5021170;28;20033;-65
2022/12/15 11:18:34;;;;;;;10.85;4.80;;;5.80;99.90;;;;;;5036893;28;20094;-66
2022/12/15 11:21:26;;;;;;;9.60;5.80;;;5.70;99.90;;;;;;5026827;28;20585;-67
2022/12/15 11:23:54;;;;;;;13.10;5.57;;;5.70;99.90;;;;;;5037890;28;20554;-65
2022/12/15 11:26:53;;;;;;;9.43;5.40;;;5.70;99.90;;;;;;5021695;28;20049;-65
2022/12/15 11:29:22;;;;;;;11.90;5.85;;;5.70;99.90;;;;;;5063359;28;20083;-64
2022/12/15 11:31:50;;;;;;;9.77;4.72;;;5.90;99.90;;;;;;5037023;28;20044;-66
2022/12/15 11:34:20;;;;;;;10.80;4.55;;;6.10;99.90;;;;;;5034264;28;20482;-66
2022/12/15 11:37:12;;;;;;;9.40;4.53;;;6.00;99.90;;;;;;5065016;28;20136;-65
2022/12/15 11:39:56;;;;;;;10.20;4.75;;;6.50;99.90;;;;;;5040866;28;20349;-65
2022/12/15 11:42:28;;;;;;;10.75;4.55;;;6.60;99.90;;;;;;5038853;28;20072;-66
2022/12/15 11:45:13;;;;;;;8.07;4.28;;;6.70;99.90;;;;;;5037653;28;20372;-65
2022/12/15 11:48:12;;;;;;;9.10;4.65;;;6.40;99.90;;;;;;5037917;28;20761;-66
2022/12/15 11:51:09;;;;;;;10.02;4.07;;;5.90;99.90;;;;;;4965558;28;20053;-66
2022/12/15 11:53:54;;;;;;;11.65;4.70;;;6.20;99.90;;;;;;5007531;28;20546;-65
2022/12/15 11:56:37;;;;;;;9.93;4.50;;;6.20;99.90;;;;;;5037505;28;20150;-65
2022/12/15 11:59:34;;;;;;;12.35;4.93;;;6.40;99.90;;;;;;5018079;28;20362;-65
2022/12/15 12:02:37;;;;;;;11.77;4.30;;;6.10;99.90;;;;;;5036511;28;20072;-66
2022/12/15 12:05:21;;;;;;;9.95;4.57;;;6.20;99.90;;;;;;5033929;28;20037;-65
2022/12/15 12:07:51;;;;;;;7.70;4.03;;;6.20;99.90;;;;;;5034228;28;20094;-66
2022/12/15 12:10:32;;;;;;;10.98;4.93;;;6.20;99.90;;;;;;5037324;28;20120;-65
2022/12/15 12:13:36;;;;;;;10.38;4.30;;;6.50;99.90;;;;;;5035288;28;20045;-66
2022/12/15 12:16:09;;;;;;;11.10;4.10;;;6.30;99.90;;;;;;5037172;28;20116;-66
2022/12/15 12:18:47;;;;;;;7.72;3.22;;;6.60;99.90;;;;;;5035643;28;20041;-67
2022/12/15 12:21:22;;;;;;;10.15;3.70;;;6.60;99.90;;;;;;5033220;28;20240;-66
2022/12/15 12:24:00;;;;;;;12.05;4.15;;;6.50;99.90;;;;;;5017731;28;20127;-65
2022/12/15 12:26:39;;;;;;;7.97;3.63;;;6.50;99.90;;;;;;5036379;28;20084;-65
2022/12/15 12:29:24;;;;;;;9.13;4.20;;;6.50;99.90;;;;;;5036715;28;20052;-66
2022/12/15 12:31:53;;;;;;;8.93;3.90;;;6.20;99.90;;;;;;5064042;28;20147;-66
2022/12/15 12:35:02;;;;;;;8.85;3.78;;;6.30;99.90;;;;;;5035885;28;20868;-66
2022/12/15 12:37:45;;;;;;;10.20;4.30;;;5.70;99.90;;;;;;5060312;28;20056;-65
2022/12/15 12:40:59;;;;;;;13.82;4.68;;;5.10;99.90;;;;;;5063012;28;20056;-66
2022/12/15 12:43:44;;;;;;;9.20;4.05;;;5.00;99.90;;;;;;5035366;28;20360;-66
2022/12/15 12:46:13;;;;;;;10.27;4.28;;;4.80;99.90;;;;;;5016991;28;20049;-66
2022/12/15 12:48:42;;;;;;;9.98;4.30;;;4.40;99.90;;;;;;5038037;28;21038;-65
2022/12/15 12:51:15;;;;;;;11.23;4.43;;;4.50;99.90;;;;;;5048860;28;20466;-65
2022/12/15 12:53:41;;;;;;;10.57;3.78;;;4.30;99.90;;;;;;5030328;28;20534;-64
2022/12/15 12:56:26;;;;;;;10.40;4.00;;;4.20;99.90;;;;;;5022509;28;20053;-65
2022/12/15 12:58:52;;;;;;;11.48;4.90;;;4.30;99.90;;;;;;5040287;28;20430;-65
2022/12/15 13:01:24;;;;;;;9.32;4.80;;;4.60;99.90;;;;;;5039808;28;20083;-65
2022/12/15 13:04:32;;;;;;;12.32;4.63;;;4.90;99.90;;;;;;5041049;28;20122;-65
2022/12/15 13:06:58;;;;;;;13.82;4.78;;;4.40;99.90;;;;;;5041117;28;20044;-65
2022/12/15 13:09:42;;;;;;;9.77;5.22;;;3.90;99.90;;;;;;5035242;28;20071;-65
2022/12/15 13:12:45;;;;;;;11.75;4.75;;;3.70;99.90;;;;;;5040464;28;20511;-65
2022/12/15 13:15:17;;;;;;;10.00;4.87;;;3.50;99.90;;;;;;5024784;28;20056;-65
2022/12/15 13:17:50;;;;;;;12.40;5.10;;;3.30;99.90;;;;;;5037561;28;20076;-65
2022/12/15 13:20:24;;;;;;;11.70;4.70;;;3.10;99.90;;;;;;5039181;28;20209;-66
2022/12/15 13:22:50;;;;;;;12.32;4.63;;;3.10;99.90;;;;;;5022790;28;20037;-65
2022/12/15 13:25:37;;;;;;;10.55;4.53;;;3.50;99.90;;;;;;5033137;28;20064;-66
2022/12/15 13:28:22;;;;;;;11.88;4.90;;;3.80;99.90;;;;;;5038197;28;21065;-66
2022/12/15 13:31:17;;;;;;;10.95;4.53;;;4.00;99.90;;;;;;5053913;28;20533;-66
2022/12/15 13:33:49;;;;;;;10.98;4.63;;;4.00;99.90;;;;;;5050501;28;20044;-67
2022/12/15 13:36:36;;;;;;;14.73;4.80;;;3.80;99.90;;;;;;5022768;28;20037;-65
2022/12/15 13:39:11;;;;;;;10.68;3.90;;;3.60;99.90;;;;;;5038853;28;20548;-65
2022/12/15 13:41:46;;;;;;;8.45;3.95;;;3.50;99.90;;;;;;5037314;28;20049;-67
2022/12/15 13:44:19;;;;;;;8.05;4.10;;;3.60;99.90;;;;;;5039993;28;20052;-66
2022/12/15 13:46:46;;;;;;;6.68;3.13;;;4.00;99.90;;;;;;5053092;28;20037;-65
2022/12/15 13:49:32;;;;;;;8.25;3.45;;;4.10;99.90;;;;;;5038160;28;20382;-67
2022/12/15 13:52:02;;;;;;;10.27;3.92;;;3.90;99.90;;;;;;5037631;28;20052;-65
2022/12/15 13:54:35;;;;;;;11.25;3.88;;;3.90;99.90;;;;;;5038496;28;20406;-65
2022/12/15 13:57:04;;;;;;;12.18;4.07;;;4.10;99.90;;;;;;5035602;28;20101;-65
2022/12/15 13:59:44;;;;;;;14.13;4.57;;;4.20;99.90;;;;;;5021544;28;20454;-65
2022/12/15 14:02:39;;;;;;;9.70;3.88;;;4.20;99.90;;;;;;5067738;28;20419;-65
2022/12/15 14:05:16;;;;;;;14.25;4.38;;;3.70;99.90;;;;;;5030482;28;20070;-66
2022/12/15 14:07:52;;;;;;;10.77;4.20;;;3.30;99.90;;;;;;5038452;28;20489;-65
2022/12/15 14:10:23;;;;;;;11.88;4.57;;;3.00;99.90;;;;;;5038370;28;20144;-64
2022/12/15 14:12:51;;;;;;;11.25;4.40;;;2.90;99.90;;;;;;5036223;28;20128;-64
2022/12/15 14:15:22;;;;;;;11.93;3.70;;;2.80;99.90;;;;;;5040473;28;20053;-65
2022/12/15 14:17:52;;;;;;;8.63;4.82;;;2.70;99.90;;;;;;5018918;28;20044;-66
2022/12/15 14:20:27;;;;;;;10.20;4.30;;;2.70;99.90;;;;;;5018488;28;20498;-66
2022/12/15 14:22:53;;;;;;;11.88;4.07;;;2.60;99.90;;;;;;5039567;28;20568;-66
2022/12/15 14:25:25;;;;;;;10.73;4.45;;;2.60;99.90;;;;;;5037791;28;20116;-65
2022/12/15 14:27:51;;;;;;;12.18;4.90;;;2.60;99.90;;;;;;5033930;28;20082;-65
2022/12/15 14:30:22;;;;;;;15.02;5.57;;;2.60;99.90;;;;;;5039371;28;20036;-65
2022/12/15 14:32:55;;;;;;;11.70;4.68;;;2.60;99.90;;;;;;5038218;28;20127;-66
2022/12/15 14:35:42;;;;;;;12.85;4.78;;;2.60;99.90;;;;;;5036214;28;20044;-66
2022/12/15 14:38:15;;;;;;;8.02;4.28;;;2.60;99.90;;;;;;5009427;28;20045;-66
2022/12/15 14:40:42;;;;;;;19.48;5.38;;;2.60;99.90;;;;;;5052176;28;20205;-66
2022/12/15 14:43:17;;;;;;;14.90;5.57;;;2.60;99.90;;;;;;5018007;28;20036;-65
2022/12/15 14:45:43;;;;;;;11.55;5.07;;;2.60;99.90;;;;;;5019220;28;20037;-65
2022/12/15 14:48:09;;;;;;;11.75;5.38;;;2.60;99.90;;;;;;5019569;28;20256;-64
2022/12/15 14:50:35;;;;;;;12.07;5.78;;;2.50;99.90;;;;;;5018484;28;20833;-65
2022/12/15 14:53:22;;;;;;;11.52;5.63;;;2.50;99.90;;;;;;5020436;28;20036;-65
2022/12/15 14:55:48;;;;;;;13.73;5.75;;;2.50;99.90;;;;;;5048258;28;20045;-64
2022/12/15 14:58:29;;;;;;;12.18;5.55;;;2.50;99.90;;;;;;5035908;28;20052;-66
2022/12/15 15:00:55;;;;;;;15.63;6.25;;;2.50;99.90;;;;;;5034415;28;20036;-65
2022/12/15 15:03:33;;;;;;;11.95;5.30;;;2.50;99.90;;;;;;5020357;28;20037;-65
2022/12/15 15:06:24;;;;;;;14.27;6.00;;;2.50;99.90;;;;;;5035582;28;20294;-64
2022/12/15 15:08:51;;;;;;;14.68;5.93;;;2.50;99.90;;;;;;5036556;28;20044;-66
2022/12/15 15:11:28;;;;;;;13.80;5.75;;;2.40;99.90;;;;;;5020484;28;20041;-64
2022/12/15 15:13:56;;;;;;;11.00;5.53;;;2.30;99.90;;;;;;5036688;28;20092;-64
2022/12/15 15:16:22;;;;;;;14.88;6.07;;;2.40;99.90;;;;;;5018493;28;20110;-64
2022/12/15 15:18:53;;;;;;;13.23;6.15;;;2.40;99.90;;;;;;5037766;28;20249;-65
2022/12/15 15:21:25;;;;;;;15.52;6.65;;;2.30;99.90;;;;;;5035508;28;20501;-65
2022/12/15 15:24:10;;;;;;;13.82;5.93;;;2.40;99.90;;;;;;5048711;28;20101;-66
2022/12/15 15:26:37;;;;;;;10.68;5.40;;;2.40;99.90;;;;;;5039403;28;20224;-66
2022/12/15 15:29:03;;;;;;;15.55;5.55;;;2.30;99.90;;;;;;5019491;28;20498;-66
2022/12/15 15:31:37;;;;;;;13.48;5.47;;;2.30;99.90;;;;;;5018496;28;20056;-66